Time;durP1;ratioP1;P1;durP2;ratioP2;P2;SDS_P1;SDS_P2;PMS_P1;PMS_P2;Temp;Humidity;BMP_temperature;BMP_pressure;BME280_temperature;BME280_humidity;BME280_pressure;Samples;Min_cycle;Max_cycle;Signal;HPM_P1;HPM_P2
2024/02/22 00:01:28;;;;;;;7.63;2.40;;;6.70;99.90;;;;;;5088888;28;20474;-75
2024/02/22 00:03:56;;;;;;;7.70;2.30;;;6.70;99.90;;;;;;5083315;28;20123;-74
2024/02/22 00:06:25;;;;;;;9.10;2.67;;;6.70;99.90;;;;;;5088177;28;20128;-74
2024/02/22 00:08:53;;;;;;;6.50;2.65;;;6.70;99.90;;;;;;5087349;28;20052;-74
2024/02/22 00:11:22;;;;;;;8.43;2.92;;;6.70;99.90;;;;;;5101529;27;20299;-72
2024/02/22 00:13:51;;;;;;;8.27;2.63;;;6.60;99.90;;;;;;5083535;28;20040;-73
2024/02/22 00:16:20;;;;;;;6.10;2.42;;;6.60;99.90;;;;;;5087790;28;20060;-75
2024/02/22 00:18:53;;;;;;;7.90;2.85;;;6.60;99.90;;;;;;5089078;28;20242;-75
2024/02/22 00:21:21;;;;;;;10.55;2.50;;;6.60;99.90;;;;;;5103507;27;20044;-75
2024/02/22 00:23:49;;;;;;;7.50;2.45;;;6.60;99.90;;;;;;5090110;28;20047;-75
2024/02/22 00:26:18;;;;;;;4.47;2.20;;;6.60;99.90;;;;;;5082982;28;20055;-74
2024/02/22 00:28:47;;;;;;;11.52;2.30;;;6.60;99.90;;;;;;5084081;28;20040;-74
2024/02/22 00:31:15;;;;;;;9.90;2.83;;;6.60;99.90;;;;;;5082809;28;20068;-75
2024/02/22 00:33:45;;;;;;;5.15;2.30;;;6.60;99.90;;;;;;5083190;28;20145;-75
2024/02/22 00:36:17;;;;;;;9.30;2.47;;;6.50;99.90;;;;;;5082838;28;20052;-74
2024/02/22 00:38:45;;;;;;;6.75;2.53;;;6.50;99.90;;;;;;5083060;28;20040;-74
2024/02/22 00:41:14;;;;;;;8.10;2.33;;;6.50;99.90;;;;;;5086561;28;20051;-74
2024/02/22 00:43:43;;;;;;;7.88;2.80;;;6.60;99.90;;;;;;5091831;28;20107;-75
2024/02/22 00:46:12;;;;;;;4.88;2.20;;;6.50;99.90;;;;;;5087525;28;20408;-76
2024/02/22 00:48:41;;;;;;;6.63;2.22;;;6.50;99.90;;;;;;5075385;28;20410;-74
2024/02/22 00:51:09;;;;;;;8.27;3.10;;;6.40;99.90;;;;;;5069502;28;20413;-75
2024/02/22 00:53:39;;;;;;;6.53;2.35;;;6.40;99.90;;;;;;5071659;28;20036;-75
2024/02/22 00:56:08;;;;;;;7.38;2.70;;;6.40;99.90;;;;;;5071647;28;20047;-75
2024/02/22 00:58:36;;;;;;;6.15;2.40;;;6.30;99.90;;;;;;5069959;28;20044;-75
2024/02/22 01:01:05;;;;;;;7.10;2.35;;;6.40;99.90;;;;;;5100042;27;20533;-74
2024/02/22 01:03:34;;;;;;;8.88;2.33;;;6.40;99.90;;;;;;5082240;28;20036;-75
2024/02/22 01:06:13;;;;;;;8.30;2.20;;;6.30;99.90;;;;;;5092294;28;20056;-78
2024/02/22 01:08:43;;;;;;;6.07;1.95;;;6.30;99.90;;;;;;5090946;28;20446;-75
2024/02/22 01:11:12;;;;;;;7.30;2.13;;;6.20;99.90;;;;;;5103238;27;20056;-75
2024/02/22 01:13:40;;;;;;;7.40;2.40;;;6.20;99.90;;;;;;5085350;28;20038;-76
2024/02/22 01:16:09;;;;;;;9.05;2.40;;;6.20;99.90;;;;;;5087070;28;20058;-75
2024/02/22 01:18:38;;;;;;;7.40;2.33;;;6.20;99.90;;;;;;5087340;28;20040;-75
2024/02/22 01:21:06;;;;;;;5.85;2.42;;;6.30;99.90;;;;;;5085320;28;20125;-75
2024/02/22 01:23:35;;;;;;;7.78;2.15;;;6.20;99.90;;;;;;5083471;28;20043;-75
2024/02/22 01:26:06;;;;;;;8.73;2.65;;;6.20;99.90;;;;;;5086138;28;20035;-74
2024/02/22 01:28:34;;;;;;;6.30;2.17;;;6.10;99.90;;;;;;5101534;27;20044;-74
2024/02/22 01:31:03;;;;;;;9.98;2.58;;;6.10;99.90;;;;;;5085360;28;20043;-75
2024/02/22 01:33:31;;;;;;;8.82;1.90;;;6.20;99.90;;;;;;5097863;28;20494;-76
2024/02/22 01:36:01;;;;;;;9.23;2.47;;;6.10;99.90;;;;;;5103570;27;20040;-75
2024/02/22 01:38:29;;;;;;;4.63;2.65;;;6.10;99.90;;;;;;5087854;28;20464;-75
2024/02/22 01:40:58;;;;;;;4.38;1.80;;;6.20;99.90;;;;;;5087492;28;20040;-74
2024/02/22 01:43:28;;;;;;;8.38;1.80;;;6.20;99.90;;;;;;5082572;28;20059;-75
2024/02/22 01:45:58;;;;;;;4.68;2.03;;;6.20;99.90;;;;;;5076791;28;20052;-76
2024/02/22 01:48:26;;;;;;;7.55;2.17;;;6.10;99.90;;;;;;5076491;28;20683;-75
2024/02/22 01:50:58;;;;;;;6.70;2.22;;;6.20;99.90;;;;;;5081413;28;21434;-75
2024/02/22 01:53:32;;;;;;;7.45;1.92;;;6.10;99.90;;;;;;5102221;27;20062;-74
2024/02/22 01:56:03;;;;;;;7.55;2.15;;;6.10;99.90;;;;;;5081323;28;20055;-74
2024/02/22 01:58:34;;;;;;;5.65;2.13;;;6.20;99.90;;;;;;5082833;28;20048;-76
2024/02/22 02:01:12;;;;;;;8.07;2.08;;;6.20;99.90;;;;;;5100478;28;20568;-77
2024/02/22 02:03:40;;;;;;;6.72;2.00;;;6.20;99.90;;;;;;5087498;28;20051;-76
2024/02/22 02:06:09;;;;;;;5.10;1.83;;;6.20;99.90;;;;;;5087906;28;20032;-75
2024/02/22 02:08:37;;;;;;;8.05;2.65;;;6.20;99.90;;;;;;5099488;27;20542;-76
2024/02/22 02:11:06;;;;;;;8.65;2.42;;;6.20;99.90;;;;;;5101422;28;20048;-75
2024/02/22 02:13:36;;;;;;;8.32;2.40;;;6.20;99.90;;;;;;5081353;28;20036;-75
2024/02/22 02:16:05;;;;;;;8.15;2.78;;;6.20;99.90;;;;;;5081689;28;20039;-75
2024/02/22 02:18:34;;;;;;;6.78;2.72;;;6.20;99.90;;;;;;5083508;28;20131;-78
2024/02/22 02:21:10;;;;;;;7.65;2.90;;;6.10;99.90;;;;;;5081255;28;20081;-78
2024/02/22 02:23:50;;;;;;;5.88;2.10;;;6.10;99.90;;;;;;5087539;28;20418;-75
2024/02/22 02:26:21;;;;;;;11.90;2.65;;;6.10;99.90;;;;;;5082107;28;20097;-75
2024/02/22 02:28:51;;;;;;;8.48;2.67;;;6.10;99.90;;;;;;5085681;28;20060;-75
2024/02/22 02:31:19;;;;;;;12.38;3.20;;;6.10;99.90;;;;;;5096993;28;20049;-75
2024/02/22 02:33:48;;;;;;;5.68;2.15;;;6.10;99.90;;;;;;5083590;28;20032;-75
2024/02/22 02:36:16;;;;;;;10.25;3.13;;;6.00;99.90;;;;;;5098143;28;20132;-75
2024/02/22 02:38:45;;;;;;;5.68;2.90;;;6.00;99.90;;;;;;5079716;28;20394;-75
2024/02/22 02:41:13;;;;;;;9.77;3.10;;;6.00;99.90;;;;;;5086674;28;20037;-75
2024/02/22 02:43:43;;;;;;;8.38;3.20;;;6.00;99.90;;;;;;5082828;28;20101;-75
2024/02/22 02:46:12;;;;;;;8.38;2.75;;;6.00;99.90;;;;;;5099324;28;20052;-74
2024/02/22 02:48:43;;;;;;;7.22;2.55;;;6.00;99.90;;;;;;5085038;28;20122;-74
2024/02/22 02:51:11;;;;;;;7.22;3.00;;;6.00;99.90;;;;;;5081681;28;20135;-75
2024/02/22 02:53:39;;;;;;;11.35;2.60;;;6.00;99.90;;;;;;5088455;28;20039;-76
2024/02/22 02:56:08;;;;;;;8.10;2.42;;;6.00;99.90;;;;;;5105293;28;20499;-75
2024/02/22 02:58:36;;;;;;;9.00;2.95;;;6.00;99.90;;;;;;5085451;28;20087;-74
2024/02/22 03:01:07;;;;;;;7.45;2.72;;;6.00;99.90;;;;;;5083171;28;20044;-75
2024/02/22 03:03:37;;;;;;;6.97;2.03;;;6.10;99.90;;;;;;5105609;28;20044;-78
2024/02/22 03:06:09;;;;;;;6.82;2.58;;;6.10;99.90;;;;;;5080591;28;20079;-76
2024/02/22 03:08:39;;;;;;;8.10;2.30;;;6.10;99.90;;;;;;5080390;28;20054;-75
2024/02/22 03:11:07;;;;;;;8.80;2.63;;;6.00;99.90;;;;;;5087025;28;20138;-76
2024/02/22 03:13:40;;;;;;;6.22;2.53;;;6.10;99.90;;;;;;5083607;28;20075;-75
2024/02/22 03:16:11;;;;;;;8.13;2.33;;;6.00;99.90;;;;;;5088032;28;20111;-76
2024/02/22 03:18:40;;;;;;;9.45;2.83;;;6.00;99.90;;;;;;5084287;28;20040;-76
2024/02/22 03:21:10;;;;;;;12.07;3.20;;;6.10;99.90;;;;;;5086043;28;20131;-75
2024/02/22 03:23:38;;;;;;;8.90;2.70;;;6.00;99.90;;;;;;5084804;28;20117;-75
2024/02/22 03:26:07;;;;;;;7.38;2.47;;;6.00;99.90;;;;;;5084125;28;20051;-74
2024/02/22 03:28:38;;;;;;;7.03;2.33;;;6.00;99.90;;;;;;5088136;28;20050;-75
2024/02/22 03:31:13;;;;;;;9.73;3.47;;;6.00;99.90;;;;;;5092459;28;20040;-75
2024/02/22 03:33:42;;;;;;;6.75;2.97;;;6.00;99.90;;;;;;5086277;28;20036;-75
2024/02/22 03:36:10;;;;;;;12.52;3.53;;;6.00;99.90;;;;;;5100103;28;20040;-75
2024/02/22 03:38:39;;;;;;;10.68;2.90;;;6.00;99.90;;;;;;5086394;28;20040;-75
2024/02/22 03:41:07;;;;;;;12.35;3.85;;;6.00;99.90;;;;;;5083391;28;20051;-75
2024/02/22 03:43:38;;;;;;;7.10;2.92;;;6.00;99.90;;;;;;5084863;28;20364;-75
2024/02/22 03:46:07;;;;;;;8.55;2.92;;;6.00;99.90;;;;;;5090392;28;20040;-75
2024/02/22 03:48:36;;;;;;;9.82;3.45;;;6.00;99.90;;;;;;5087271;28;20135;-75
2024/02/22 03:51:06;;;;;;;7.93;2.40;;;6.00;99.90;;;;;;5093413;28;20093;-77
2024/02/22 03:53:34;;;;;;;13.10;3.92;;;5.90;99.90;;;;;;5087998;28;20072;-77
2024/02/22 03:56:03;;;;;;;10.98;3.58;;;6.00;99.90;;;;;;5089534;28;20472;-77
2024/02/22 03:58:33;;;;;;;8.05;2.78;;;6.00;99.90;;;;;;5100398;28;20543;-76
2024/02/22 04:01:04;;;;;;;13.38;3.33;;;6.00;99.90;;;;;;5088530;28;20086;-77
2024/02/22 04:03:42;;;;;;;12.32;3.17;;;6.00;99.90;;;;;;5086155;28;20055;-77
2024/02/22 04:06:12;;;;;;;7.68;2.30;;;6.00;99.90;;;;;;5089019;28;20040;-75
2024/02/22 04:08:41;;;;;;;8.73;3.30;;;6.00;99.90;;;;;;5089920;28;20127;-75
2024/02/22 04:11:14;;;;;;;10.45;3.55;;;6.00;99.90;;;;;;5087623;28;20048;-77
2024/02/22 04:13:43;;;;;;;9.50;3.28;;;6.00;99.90;;;;;;5094016;28;20404;-77
2024/02/22 04:16:12;;;;;;;7.50;2.80;;;6.00;99.90;;;;;;5086069;28;20105;-76
2024/02/22 04:18:40;;;;;;;9.90;2.95;;;6.00;99.90;;;;;;5087914;28;20044;-76
2024/02/22 04:21:12;;;;;;;11.43;3.75;;;6.00;99.90;;;;;;5090358;28;20083;-77
2024/02/22 04:23:41;;;;;;;9.05;3.58;;;6.00;99.90;;;;;;5098704;27;20143;-77
2024/02/22 04:26:11;;;;;;;13.02;3.28;;;6.00;99.90;;;;;;5098155;27;20407;-76
2024/02/22 04:28:39;;;;;;;13.32;3.60;;;6.00;99.90;;;;;;5084220;28;20411;-76
2024/02/22 04:31:08;;;;;;;8.48;3.10;;;6.00;99.90;;;;;;5101967;27;20039;-76
2024/02/22 04:33:36;;;;;;;7.80;2.80;;;6.00;99.90;;;;;;5087488;28;20090;-75
2024/02/22 04:36:05;;;;;;;11.32;3.10;;;6.00;99.90;;;;;;5089702;28;20507;-76
2024/02/22 04:38:35;;;;;;;6.90;2.80;;;6.00;99.90;;;;;;5092495;28;20044;-76
2024/02/22 04:41:04;;;;;;;8.85;3.70;;;6.00;99.90;;;;;;5083384;28;20040;-76
2024/02/22 04:43:33;;;;;;;8.02;2.20;;;6.00;99.90;;;;;;5087194;28;20044;-76
2024/02/22 04:46:08;;;;;;;10.40;3.15;;;6.10;99.90;;;;;;5077966;28;20051;-76
2024/02/22 04:48:41;;;;;;;6.63;2.38;;;6.10;99.90;;;;;;5077383;28;20059;-75
2024/02/22 04:51:10;;;;;;;11.65;2.92;;;6.10;99.90;;;;;;5099626;28;20036;-75
2024/02/22 04:53:40;;;;;;;9.68;3.10;;;6.00;99.90;;;;;;5085476;28;20037;-75
2024/02/22 04:56:09;;;;;;;7.60;2.80;;;6.10;99.90;;;;;;5088353;28;20470;-76
2024/02/22 04:58:39;;;;;;;7.53;2.75;;;6.10;99.90;;;;;;5086426;28;20563;-75
2024/02/22 05:01:16;;;;;;;9.57;2.90;;;6.10;99.90;;;;;;5088912;28;20036;-75
2024/02/22 05:03:46;;;;;;;8.38;2.38;;;6.10;99.90;;;;;;5089450;28;20074;-75
2024/02/22 05:06:15;;;;;;;7.70;2.65;;;6.10;99.90;;;;;;5087461;28;20090;-75
2024/02/22 05:08:46;;;;;;;9.88;2.90;;;6.20;99.90;;;;;;5087913;28;20407;-75
2024/02/22 05:11:14;;;;;;;8.60;2.75;;;6.20;99.90;;;;;;5100963;28;20045;-76
2024/02/22 05:13:43;;;;;;;12.18;4.15;;;6.20;99.90;;;;;;5090907;28;20503;-75
2024/02/22 05:16:15;;;;;;;11.80;3.30;;;6.20;99.90;;;;;;5085690;28;20410;-74
2024/02/22 05:18:43;;;;;;;11.00;3.00;;;6.20;99.90;;;;;;5083054;28;20460;-75
2024/02/22 05:21:15;;;;;;;4.22;1.80;;;6.20;99.90;;;;;;5084664;28;20463;-75
2024/02/22 05:23:52;;;;;;;10.45;3.50;;;6.20;99.90;;;;;;5083326;28;20422;-76
2024/02/22 05:26:24;;;;;;;6.25;1.42;;;6.20;99.90;;;;;;5089625;28;20398;-75
2024/02/22 05:28:56;;;;;;;8.13;3.30;;;6.30;99.90;;;;;;5079607;28;20400;-74
2024/02/22 05:31:27;;;;;;;7.78;2.78;;;6.30;99.90;;;;;;5086379;28;20288;-75
2024/02/22 05:33:58;;;;;;;9.85;3.58;;;6.30;99.90;;;;;;5086715;28;20468;-77
2024/02/22 05:36:27;;;;;;;7.90;2.90;;;6.20;99.90;;;;;;5090781;28;20035;-74
2024/02/22 05:39:01;;;;;;;11.13;2.95;;;6.30;99.90;;;;;;5085009;28;20075;-75
2024/02/22 05:41:30;;;;;;;13.05;3.10;;;6.30;99.90;;;;;;5088258;28;20054;-74
2024/02/22 05:43:58;;;;;;;8.32;3.00;;;6.30;99.90;;;;;;5079757;28;20048;-75
2024/02/22 05:46:30;;;;;;;7.82;2.95;;;6.20;99.90;;;;;;5084252;28;20467;-75
2024/02/22 05:48:59;;;;;;;8.70;2.53;;;6.30;99.90;;;;;;5084928;28;20050;-75
2024/02/22 05:51:28;;;;;;;5.82;3.03;;;6.30;99.90;;;;;;5081000;28;20109;-75
2024/02/22 05:53:57;;;;;;;13.77;3.03;;;6.30;99.90;;;;;;5084641;28;20051;-75
2024/02/22 05:56:28;;;;;;;12.73;3.45;;;6.30;99.90;;;;;;5104550;27;20710;-76
2024/02/22 05:58:57;;;;;;;7.63;2.85;;;6.30;99.90;;;;;;5096794;28;20048;-76
2024/02/22 06:01:26;;;;;;;10.95;3.22;;;6.30;99.90;;;;;;5087851;28;20051;-75
2024/02/22 06:03:56;;;;;;;7.65;2.75;;;6.30;99.90;;;;;;5085244;28;20044;-75
2024/02/22 06:06:26;;;;;;;8.98;2.97;;;6.30;99.90;;;;;;5100222;27;20045;-75
2024/02/22 06:08:59;;;;;;;6.93;2.20;;;6.30;99.90;;;;;;5104339;27;20062;-76
2024/02/22 06:11:36;;;;;;;7.95;2.70;;;6.30;99.90;;;;;;5087302;28;20131;-75
2024/02/22 06:14:08;;;;;;;11.13;2.13;;;6.30;99.90;;;;;;5086128;28;20044;-76
2024/02/22 06:16:39;;;;;;;8.90;2.78;;;6.40;99.90;;;;;;5085457;28;20052;-76
2024/02/22 06:19:08;;;;;;;11.70;3.45;;;6.40;99.90;;;;;;5082051;28;20641;-76
2024/02/22 06:21:37;;;;;;;5.35;2.20;;;6.40;99.90;;;;;;5081023;28;20045;-75
2024/02/22 06:24:09;;;;;;;6.57;1.70;;;6.40;99.90;;;;;;5085631;28;20109;-76
2024/02/22 06:26:39;;;;;;;;;;;6.40;99.90;;;;;;5080843;28;20044;-75
2024/02/22 06:29:08;;;;;;;8.13;3.33;;;6.50;99.90;;;;;;5098683;28;19930;-75
2024/02/22 06:31:38;;;;;;;10.15;3.67;;;6.50;99.90;;;;;;5084144;28;20434;-75
2024/02/22 06:34:06;;;;;;;8.32;2.53;;;6.50;99.90;;;;;;5086587;28;20515;-77
2024/02/22 06:36:39;;;;;;;11.05;3.25;;;6.50;99.90;;;;;;5089807;28;20044;-76
2024/02/22 06:39:14;;;;;;;7.53;2.60;;;6.60;99.90;;;;;;5086848;28;20047;-76
2024/02/22 06:41:44;;;;;;;8.80;2.90;;;6.60;99.90;;;;;;5078328;28;20040;-75
2024/02/22 06:44:12;;;;;;;5.03;1.98;;;6.60;99.90;;;;;;5087528;28;20052;-77
2024/02/22 06:46:44;;;;;;;9.77;2.35;;;6.70;99.90;;;;;;5079862;28;20040;-75
2024/02/22 06:49:18;;;;;;;9.77;2.30;;;6.70;99.90;;;;;;5085238;28;20075;-77
2024/02/22 06:51:51;;;;;;;9.80;2.35;;;6.70;99.90;;;;;;5100788;28;20056;-74
2024/02/22 06:54:25;;;;;;;7.85;2.05;;;6.70;99.90;;;;;;5087027;28;20094;-76
2024/02/22 06:56:54;;;;;;;8.60;2.28;;;6.70;99.90;;;;;;5083370;28;20507;-76
2024/02/22 06:59:22;;;;;;;6.65;2.47;;;6.80;99.90;;;;;;5082571;28;20442;-75
2024/02/22 07:01:51;;;;;;;6.55;2.35;;;6.80;99.90;;;;;;5084725;28;20517;-75
2024/02/22 07:04:20;;;;;;;6.05;2.58;;;6.80;99.90;;;;;;5085366;28;20051;-75
2024/02/22 07:06:48;;;;;;;6.45;2.28;;;6.90;99.90;;;;;;5087982;28;20101;-75
2024/02/22 07:09:17;;;;;;;6.90;2.40;;;6.90;99.90;;;;;;5086033;28;20076;-75
2024/02/22 07:11:46;;;;;;;6.43;2.13;;;6.90;99.90;;;;;;5100149;28;20047;-75
2024/02/22 07:14:21;;;;;;;6.63;2.13;;;7.00;99.90;;;;;;5090281;28;20040;-76
2024/02/22 07:16:50;;;;;;;7.43;2.28;;;7.10;99.90;;;;;;5086957;28;20048;-75
2024/02/22 07:19:21;;;;;;;9.98;2.13;;;7.10;99.90;;;;;;5087401;28;20051;-75
2024/02/22 07:21:50;;;;;;;9.35;3.35;;;7.20;99.90;;;;;;5088781;28;20048;-77
2024/02/22 07:24:19;;;;;;;4.00;1.20;;;7.20;99.90;;;;;;5087874;28;20403;-77
2024/02/22 07:26:52;;;;;;;6.72;1.85;;;7.30;99.90;;;;;;5089744;28;20127;-77
2024/02/22 07:29:24;;;;;;;7.97;2.17;;;7.30;99.90;;;;;;5086362;28;20044;-79
2024/02/22 07:31:53;;;;;;;10.02;2.42;;;7.40;99.90;;;;;;5089265;28;20075;-77
2024/02/22 07:34:22;;;;;;;6.43;2.40;;;7.40;99.90;;;;;;5093966;28;20044;-75
2024/02/22 07:36:51;;;;;;;3.67;1.27;;;7.50;99.90;;;;;;5089774;28;20036;-75
2024/02/22 07:39:20;;;;;;;8.38;2.60;;;7.50;99.90;;;;;;5089183;28;20368;-76
2024/02/22 07:41:55;;;;;;;5.65;2.60;;;7.50;99.90;;;;;;5093912;28;20548;-79
2024/02/22 07:44:27;;;;;;;7.63;2.53;;;7.60;99.90;;;;;;5086525;28;20501;-77
2024/02/22 07:46:57;;;;;;;10.65;2.70;;;7.60;99.90;;;;;;5102269;28;20040;-77
2024/02/22 07:49:27;;;;;;;12.13;3.22;;;7.70;99.90;;;;;;5085147;28;20040;-77
2024/02/22 07:51:57;;;;;;;8.23;3.03;;;7.70;99.90;;;;;;5091739;28;20070;-75
2024/02/22 07:54:30;;;;;;;6.45;2.25;;;7.80;99.90;;;;;;5072520;28;20467;-74
2024/02/22 07:57:00;;;;;;;7.35;3.17;;;7.80;99.90;;;;;;5090576;28;20036;-75
2024/02/22 07:59:29;;;;;;;7.85;3.20;;;7.80;99.90;;;;;;5101540;28;20105;-75
2024/02/22 08:01:58;;;;;;;6.63;2.45;;;7.80;99.90;;;;;;5083842;28;20535;-75
2024/02/22 08:04:27;;;;;;;5.93;2.35;;;7.90;99.90;;;;;;5085600;28;20045;-75
2024/02/22 08:06:58;;;;;;;9.57;2.33;;;7.90;99.90;;;;;;5085338;28;20517;-76
2024/02/22 08:09:29;;;;;;;5.25;1.90;;;7.90;99.90;;;;;;5085383;28;20044;-75
2024/02/22 08:11:58;;;;;;;10.68;3.13;;;7.90;99.90;;;;;;5105547;27;20123;-74
2024/02/22 08:14:27;;;;;;;8.15;2.47;;;8.00;99.90;;;;;;5090328;28;20044;-74
2024/02/22 08:16:56;;;;;;;4.95;1.77;;;8.00;99.90;;;;;;5086027;28;20110;-75
2024/02/22 08:19:25;;;;;;;10.60;2.92;;;8.10;99.90;;;;;;5085976;28;20400;-74
2024/02/22 08:21:53;;;;;;;9.50;2.70;;;8.00;99.90;;;;;;5083799;28;20135;-75
2024/02/22 08:24:23;;;;;;;9.32;2.72;;;8.10;99.90;;;;;;5092163;28;20056;-75
2024/02/22 08:26:54;;;;;;;7.57;2.50;;;8.20;99.90;;;;;;5087951;28;20495;-74
2024/02/22 08:29:31;;;;;;;9.25;2.97;;;8.20;99.90;;;;;;5079567;28;20444;-75
2024/02/22 08:32:00;;;;;;;6.82;2.20;;;8.30;99.90;;;;;;5102874;27;20552;-75
2024/02/22 08:34:31;;;;;;;5.88;2.53;;;8.40;99.90;;;;;;5084315;28;20438;-79
2024/02/22 08:37:01;;;;;;;5.95;2.45;;;8.50;99.90;;;;;;5087028;28;20041;-75
2024/02/22 08:39:32;;;;;;;6.18;2.00;;;8.50;99.90;;;;;;5095595;28;20129;-82
2024/02/22 08:42:03;;;;;;;;;;;8.60;99.90;;;;;;5087680;28;20128;-75
2024/02/22 08:44:34;;;;;;;7.57;2.03;;;8.70;99.90;;;;;;5081483;28;20407;-78
2024/02/22 08:47:09;;;;;;;8.77;3.63;;;8.70;99.90;;;;;;5087862;28;20440;-75
2024/02/22 08:49:43;;;;;;;14.13;5.20;;;8.70;99.90;;;;;;5085126;28;20052;-75
2024/02/22 08:52:12;;;;;;;8.63;3.17;;;8.70;99.90;;;;;;5090400;28;20521;-76
2024/02/22 08:54:43;;;;;;;6.38;3.20;;;8.70;99.90;;;;;;5081647;28;20051;-79
2024/02/22 08:57:12;;;;;;;5.93;2.95;;;8.70;99.90;;;;;;5083749;28;20056;-75
2024/02/22 08:59:44;;;;;;;7.20;2.63;;;8.70;99.90;;;;;;5082331;28;20083;-75
2024/02/22 09:02:18;;;;;;;5.80;2.40;;;8.70;99.90;;;;;;5086288;28;20419;-76
2024/02/22 09:04:47;;;;;;;9.35;3.17;;;8.80;99.90;;;;;;5104313;27;20048;-78
2024/02/22 09:07:24;;;;;;;8.38;3.28;;;8.80;99.90;;;;;;5083547;28;20415;-75
2024/02/22 09:09:53;;;;;;;9.77;4.00;;;8.80;99.90;;;;;;5087543;28;20152;-75
2024/02/22 09:12:22;;;;;;;9.77;3.40;;;8.90;99.90;;;;;;5085898;28;20071;-77
2024/02/22 09:14:53;;;;;;;6.90;3.65;;;8.90;99.90;;;;;;5081343;28;20503;-74
2024/02/22 09:17:21;;;;;;;9.35;3.20;;;9.00;99.90;;;;;;5104652;27;20127;-75
2024/02/22 09:19:51;;;;;;;7.57;2.22;;;9.30;99.70;;;;;;5082888;28;20066;-75
2024/02/22 09:22:22;;;;;;;6.82;1.65;;;9.60;99.50;;;;;;5084547;28;20128;-78
2024/02/22 09:24:50;;;;;;;8.32;2.65;;;9.80;99.20;;;;;;5083556;28;20464;-78
2024/02/22 09:27:22;;;;;;;6.15;3.13;;;9.90;98.70;;;;;;5088630;28;20368;-78
2024/02/22 09:29:53;;;;;;;8.40;3.10;;;10.00;98.10;;;;;;5081032;28;20139;-75
2024/02/22 09:32:25;;;;;;;6.72;2.35;;;9.90;98.20;;;;;;5065109;28;20479;-86
2024/02/22 09:34:57;;;;;;;7.00;2.58;;;10.00;98.40;;;;;;5085560;28;20541;-75
2024/02/22 09:37:30;;;;;;;8.65;2.55;;;10.00;97.80;;;;;;5065243;28;21051;-76
2024/02/22 09:39:59;;;;;;;11.43;3.25;;;10.10;97.60;;;;;;5076164;28;20566;-75
2024/02/22 09:42:29;;;;;;;5.10;2.03;;;10.30;97.50;;;;;;5071179;28;20044;-78
2024/02/22 09:44:59;;;;;;;6.70;2.28;;;10.40;97.10;;;;;;5078642;28;20135;-83
2024/02/22 09:47:28;;;;;;;6.47;2.45;;;10.40;96.80;;;;;;5066034;28;20047;-85
2024/02/22 09:49:57;;;;;;;5.47;1.67;;;10.40;96.80;;;;;;5070995;28;20178;-78
2024/02/22 09:52:25;;;;;;;7.93;2.72;;;10.40;96.80;;;;;;5062949;28;20043;-75
2024/02/22 09:54:56;;;;;;;6.85;2.25;;;10.40;97.00;;;;;;5084657;28;20149;-76
2024/02/22 09:57:27;;;;;;;7.03;1.55;;;10.40;97.20;;;;;;5083141;28;20068;-77
2024/02/22 10:00:00;;;;;;;8.43;2.45;;;10.60;96.80;;;;;;5082068;28;20052;-79
2024/02/22 10:02:45;;;;;;;11.27;1.88;;;10.70;96.20;;;;;;5083259;28;20044;-75
2024/02/22 10:05:16;;;;;;;8.88;1.92;;;10.80;96.10;;;;;;5081148;28;20499;-75
2024/02/22 10:07:45;;;;;;;6.13;2.03;;;10.90;96.70;;;;;;5099123;27;20131;-76
2024/02/22 10:10:25;;;;;;;10.05;2.35;;;11.00;96.10;;;;;;5085449;28;20048;-75
2024/02/22 10:12:55;;;;;;;5.80;1.92;;;11.10;95.70;;;;;;5084574;28;20564;-78
2024/02/22 10:15:30;;;;;;;7.75;2.50;;;11.30;95.00;;;;;;5087551;28;20072;-75
2024/02/22 10:18:03;;;;;;;4.93;1.75;;;11.50;94.50;;;;;;5095022;28;20047;-75
2024/02/22 10:20:33;;;;;;;3.88;1.63;;;11.60;94.00;;;;;;5085491;28;20063;-79
2024/02/22 10:23:11;;;;;;;2.92;1.52;;;11.60;93.50;;;;;;5085204;28;20056;-76
2024/02/22 10:25:40;;;;;;;5.32;2.15;;;11.70;93.60;;;;;;5083863;28;20040;-79
2024/02/22 10:28:14;;;;;;;10.20;1.90;;;11.90;94.00;;;;;;5097496;28;20032;-75
2024/02/22 10:30:45;;;;;;;3.30;1.23;;;12.00;93.40;;;;;;5084920;28;20071;-77
2024/02/22 10:33:14;;;;;;;3.42;0.98;;;12.20;92.30;;;;;;5098438;28;20051;-76
2024/02/22 10:35:45;;;;;;;5.05;1.30;;;12.30;91.90;;;;;;5105715;27;20123;-79
2024/02/22 10:38:15;;;;;;;6.30;1.70;;;12.40;92.10;;;;;;5088492;28;20145;-76
2024/02/22 10:40:49;;;;;;;4.63;1.30;;;12.40;90.90;;;;;;5082716;28;20048;-77
2024/02/22 10:43:19;;;;;;;5.18;1.75;;;12.30;90.50;;;;;;5086245;28;20048;-78
2024/02/22 10:45:52;;;;;;;7.18;2.17;;;12.50;90.80;;;;;;5085457;28;20270;-76
2024/02/22 10:48:22;;;;;;;5.18;2.08;;;12.70;91.10;;;;;;5086491;28;20044;-78
2024/02/22 10:50:53;;;;;;;3.90;1.88;;;12.80;90.70;;;;;;5089755;28;20482;-76
2024/02/22 10:53:23;;;;;;;5.72;1.60;;;12.80;89.40;;;;;;5090240;28;20093;-76
2024/02/22 10:55:55;;;;;;;5.00;2.13;;;12.80;89.10;;;;;;5103084;28;20094;-76
2024/02/22 10:58:29;;;;;;;4.93;1.83;;;12.80;89.40;;;;;;5088715;28;20577;-76
2024/02/22 11:01:03;;;;;;;3.55;1.50;;;12.70;88.00;;;;;;5086735;28;20078;-81
2024/02/22 11:03:32;;;;;;;7.10;1.88;;;12.70;88.40;;;;;;5105872;27;20052;-76
2024/02/22 11:06:03;;;;;;;12.43;2.42;;;12.70;88.30;;;;;;5087530;28;20127;-75
2024/02/22 11:08:32;;;;;;;7.25;2.08;;;12.90;88.00;;;;;;5084491;28;20495;-77
2024/02/22 11:11:03;;;;;;;3.60;1.40;;;13.10;88.50;;;;;;5083111;28;20063;-77
2024/02/22 11:13:34;;;;;;;3.40;1.05;;;13.00;85.20;;;;;;5086014;28;20097;-80
2024/02/22 11:16:15;;;;;;;4.43;1.83;;;12.90;86.50;;;;;;5087969;28;20097;-75
2024/02/22 11:18:49;;;;;;;3.67;1.33;;;12.90;86.60;;;;;;5100691;28;20399;-74
2024/02/22 11:21:21;;;;;;;11.13;3.13;;;12.80;86.80;;;;;;5087120;28;20517;-75
2024/02/22 11:23:50;;;;;;;8.27;1.30;;;12.80;85.40;;;;;;5087321;28;20109;-80
2024/02/22 11:26:18;;;;;;;5.80;1.23;;;12.80;85.50;;;;;;5087533;28;20083;-80
2024/02/22 11:28:53;;;;;;;4.40;1.58;;;12.90;85.40;;;;;;5081491;28;20064;-77
2024/02/22 11:31:24;;;;;;;8.75;1.20;;;13.00;86.50;;;;;;5084889;28;20127;-75
2024/02/22 11:33:53;;;;;;;5.47;1.65;;;13.10;85.60;;;;;;5087131;28;20048;-80
2024/02/22 11:36:24;;;;;;;3.60;1.23;;;13.30;86.20;;;;;;5085329;28;20062;-77
2024/02/22 11:38:59;;;;;;;4.95;1.75;;;13.10;84.40;;;;;;5081048;28;20118;-75
2024/02/22 11:41:30;;;;;;;4.72;1.98;;;13.20;86.30;;;;;;5089789;28;20053;-76
2024/02/22 11:44:07;;;;;;;8.38;1.73;;;13.30;85.90;;;;;;5089314;28;20048;-75
2024/02/22 11:46:42;;;;;;;7.35;2.25;;;13.30;84.60;;;;;;5105954;27;20509;-74
2024/02/22 11:49:14;;;;;;;4.25;1.60;;;13.10;85.10;;;;;;5083213;28;20040;-76
2024/02/22 11:51:44;;;;;;;5.30;1.95;;;13.10;85.60;;;;;;5078021;28;20063;-75
2024/02/22 11:54:16;;;;;;;5.03;2.17;;;13.00;85.50;;;;;;5086797;28;20056;-75
2024/02/22 11:56:45;;;;;;;6.78;1.75;;;13.00;86.00;;;;;;5106282;27;20058;-78
2024/02/22 11:59:14;;;;;;;8.32;2.88;;;13.00;86.00;;;;;;5106906;27;20487;-78
2024/02/22 12:01:45;;;;;;;5.50;2.33;;;12.90;86.70;;;;;;5094687;28;20461;-79
2024/02/22 12:04:19;;;;;;;3.92;1.85;;;12.90;87.20;;;;;;5082179;28;20078;-78
2024/02/22 12:06:48;;;;;;;7.38;2.47;;;12.90;87.00;;;;;;5097197;27;20044;-82
2024/02/22 12:09:17;;;;;;;7.70;2.72;;;12.80;86.60;;;;;;5088849;28;20043;-80
2024/02/22 12:11:47;;;;;;;8.77;2.78;;;12.80;86.50;;;;;;5089688;28;20043;-78
2024/02/22 12:14:17;;;;;;;8.25;2.88;;;12.80;87.00;;;;;;5084454;28;20120;-78
2024/02/22 12:16:50;;;;;;;8.60;2.88;;;12.80;87.40;;;;;;5085386;28;20056;-76
2024/02/22 12:19:19;;;;;;;5.82;3.00;;;12.70;88.30;;;;;;5084336;28;20547;-79
2024/02/22 12:21:48;;;;;;;9.82;3.85;;;12.60;89.30;;;;;;5103207;27;20051;-74
2024/02/22 12:24:17;;;;;;;6.55;2.63;;;12.60;90.00;;;;;;5081123;28;20066;-79
2024/02/22 12:26:52;;;;;;;10.40;3.63;;;12.50;90.10;;;;;;5086308;28;20047;-76
2024/02/22 12:29:22;;;;;;;7.70;2.90;;;12.50;90.40;;;;;;5084786;28;21302;-78
2024/02/22 12:32:04;;;;;;;9.55;3.75;;;12.50;90.50;;;;;;5098303;28;20044;-81
2024/02/22 12:34:35;;;;;;;7.05;3.13;;;12.50;90.80;;;;;;5083408;28;20044;-83
2024/02/22 12:37:05;;;;;;;6.60;1.83;;;12.50;91.00;;;;;;5106507;27;20444;-80
2024/02/22 12:39:34;;;;;;;7.28;3.33;;;12.60;91.30;;;;;;5090136;28;20070;-81
2024/02/22 12:42:05;;;;;;;6.82;2.95;;;12.70;91.20;;;;;;5086906;28;20139;-77
2024/02/22 12:44:33;;;;;;;9.10;2.92;;;12.70;91.20;;;;;;5098334;28;20040;-83
2024/02/22 12:47:11;;;;;;;6.95;3.22;;;12.70;91.30;;;;;;5074331;28;20135;-79
2024/02/22 12:49:45;;;;;;;7.15;2.63;;;12.70;91.50;;;;;;5082413;28;20105;-76
2024/02/22 12:52:13;;;;;;;6.60;3.10;;;12.80;91.10;;;;;;5087765;28;20063;-78
2024/02/22 12:54:42;;;;;;;8.30;3.75;;;12.90;91.10;;;;;;5077386;28;20581;-83
2024/02/22 12:57:12;;;;;;;7.45;3.42;;;13.00;91.00;;;;;;5100137;28;20142;-83
2024/02/22 12:59:41;;;;;;;8.38;3.40;;;12.90;90.70;;;;;;5084597;28;20139;-78
2024/02/22 13:02:13;;;;;;;5.75;2.88;;;12.90;91.00;;;;;;5085187;28;20116;-82
2024/02/22 13:04:42;;;;;;;5.70;2.60;;;12.90;90.60;;;;;;5085359;28;20100;-79
2024/02/22 13:07:13;;;;;;;10.15;3.65;;;12.80;91.00;;;;;;5079042;28;20075;-77
2024/02/22 13:09:41;;;;;;;8.07;3.25;;;12.70;91.20;;;;;;5087960;28;20135;-80